Home > Products > Valid Products > TAF

000
FTUS43 KBIS 271200 AAA
TAFDIK
TAF AMD
KDIK 271230Z 2713/2812 17007KT 1/4SM FG VV001
      TEMPO 2713/2714 1SM BR VV002
     FM271400 17009KT P6SM SKC
     FM280100 16006KT P6SM SCT035=



000
FTUS43 KBIS 271100
TAFBIS
TAF
KBIS 271131Z 2712/2812 00000KT 1/4SM FG VV002
     FM271400 15003KT 3SM BR SCT005
     FM271600 16007KT P6SM FEW045
     FM280500 14004KT P6SM SCT025 OVC040=



000
FTUS43 KBIS 271100
TAFMOT
TAF
KMOT 271131Z 2712/2812 20005KT P6SM VCFG SCT002
     FM271500 18009KT P6SM FEW035
     FM280100 17007KT P6SM SKC=



000
FTUS43 KBIS 271100
TAFJMS
TAF
KJMS 271131Z 2712/2812 00000KT 1/4SM FG VV001
     FM271400 15004KT 3SM BR SCT005
     FM271600 16009KT P6SM SCT040
     FM280800 15005KT P6SM VCSH BKN040=



000
FTUS43 KBIS 271100
TAFDIK
TAF
KDIK 271131Z 2712/2812 15007KT P6SM VCFG SCT002
      TEMPO 2712/2714 1SM BR VV002
     FM271400 17009KT P6SM SKC
     FM280100 16006KT P6SM SCT035=



000
FTUS43 KBIS 271100
TAFISN
TAF
KISN 271131Z 2712/2812 17005KT P6SM VCFG SKC
     FM271500 18008KT P6SM SKC
     FM280100 15005KT P6SM SKC=



000
FTUS43 KBIS 271000 AAA
TAFDIK
TAF AMD
KDIK 271046Z 2711/2806 10007KT P6SM VCFG SCT002
      TEMPO 2712/2715 1SM BR VV002
     FM271500 17009KT P6SM SKC
     FM280100 16006KT P6SM SCT035=



000
FTUS43 KBIS 270800 AAA
TAFBIS
TAF AMD
KBIS 270823Z 2708/2806 15004KT 6SM BR SCT002
     FM270900 00000KT 1/4SM FG OVC002
     FM271500 16007KT P6SM SKC
     FM280400 14004KT P6SM BKN025 OVC040=



000
FTUS43 KBIS 270700 AAC
TAFJMS
TAF AMD
KJMS 270724Z 2707/2806 VRB03KT 1/2SM FG OVC002
      TEMPO 2708/2712 1/4SM FG OVC001
     FM271500 16009KT P6SM SCT040
     FM280100 15005KT P6SM BKN040=



000
FTUS43 KBIS 270600 AAB
TAFJMS
TAF AMD
KJMS 270626Z 2706/2806 VRB03KT 3SM BR SCT020
      TEMPO 2706/2708 1/4SM FG OVC001
     FM271500 16009KT P6SM SCT040
     FM280100 15005KT P6SM BKN040=



000
FTUS43 KBIS 270600 AAA
TAFJMS
TAF AMD
KJMS 270613Z 2706/2806 VRB03KT 3SM BR SCT020
      TEMPO 2706/2710 1SM BR SCT005
     FM271500 16009KT P6SM SCT040
     FM280100 15005KT P6SM BKN040=



000
FTUS43 KBIS 270500
TAFDIK
TAF
KDIK 270526Z 2706/2806 15006KT P6SM SCT020
     FM271500 17009KT P6SM SKC
     FM280100 16006KT P6SM SCT035=



000
FTUS43 KBIS 270500
TAFJMS
TAF
KJMS 270526Z 2706/2806 VRB03KT 6SM BR SCT020
      TEMPO 2710/2714 3SM BR SCT010
     FM271500 16009KT P6SM SCT040
     FM280100 15005KT P6SM BKN040=



000
FTUS43 KBIS 270500
TAFISN
TAF
KISN 270526Z 2706/2806 13005KT P6SM SKC
     FM271500 18008KT P6SM SKC
     FM280100 15005KT P6SM SKC=



000
FTUS43 KBIS 270500
TAFBIS
TAF
KBIS 270526Z 2706/2806 15004KT P6SM VCFG BKN035
      TEMPO 2710/2714 5SM BR SCT010
     FM271500 16007KT P6SM SKC
     FM280400 14004KT P6SM BKN025 OVC040=



000
FTUS43 KBIS 270500
TAFMOT
TAF
KMOT 270526Z 2706/2806 18005KT P6SM SKC
     FM271500 18009KT P6SM FEW035
     FM280100 17007KT P6SM SKC=



000
FTUS43 KBIS 270300 AAA
TAFJMS
TAF AMD
KJMS 270320Z 2703/2724 19005KT P6SM BKN060
     FM270600 17006KT P6SM SCT060
      TEMPO 2710/2714 5SM BR SCT010
     FM271500 15006KT P6SM SKC=



000
FTUS43 KBIS 270300 AAA
TAFMOT
TAF AMD
KMOT 270318Z 2703/2724 16005KT P6SM SKC
     FM271500 17008KT P6SM SKC=



000
FTUS43 KBIS 270300 AAA
TAFISN
TAF AMD
KISN 270318Z 2703/2724 13005KT P6SM SKC
     FM271500 18007KT P6SM SKC=



000
FTUS43 KBIS 270300 AAA
TAFDIK
TAF AMD
KDIK 270318Z 2703/2724 15006KT P6SM SKC
     FM271500 16009KT P6SM SKC=



000
FTUS43 KBIS 270300 AAA
TAFBIS
TAF AMD
KBIS 270317Z 2703/2724 12005KT P6SM BKN050
     FM270600 15004KT P6SM SKC
      TEMPO 2710/2714 5SM BR SCT010
     FM271500 16007KT P6SM SCT100=



000
FTUS43 KBIS 262300
TAFMOT
TAF
KMOT 262336Z 2700/2724 16005KT P6SM SCT060
     FM271500 17008KT P6SM SKC=



000
FTUS43 KBIS 262300
TAFJMS
TAF
KJMS 262336Z 2700/2724 27006KT P6SM -SHRA SCT010 OVC080
     FM270300 22006KT P6SM BKN080
     FM270600 18006KT P6SM SKC
      TEMPO 2710/2714 5SM BR SCT010
     FM271500 15006KT P6SM SKC=



000
FTUS43 KBIS 262300
TAFDIK
TAF
KDIK 262336Z 2700/2724 16006KT P6SM SKC
     FM271500 16009KT P6SM SKC=



000
FTUS43 KBIS 262300
TAFISN
TAF
KISN 262336Z 2700/2724 15003KT P6SM SKC
     FM271500 18007KT P6SM SKC=



000
FTUS43 KBIS 262300
TAFBIS
TAF
KBIS 262336Z 2700/2724 15004KT P6SM SCT015 BKN090
     FM270300 15004KT P6SM SKC
      TEMPO 2710/2714 5SM BR SCT010
     FM271500 16007KT P6SM SCT100=



000
FTUS43 KBIS 262000 AAA
TAFJMS
TAF AMD
KJMS 262012Z 2620/2718 24006KT P6SM -SHRA BKN040 OVC080
     FM270000 24004KT P6SM BKN100
     FM270600 VRB03KT P6SM SCT100
     FM271600 15006KT P6SM FEW100=



000
FTUS43 KBIS 261700
TAFDIK
TAF
KDIK 261736Z 2618/2718 15005KT P6SM BKN080
     FM270300 15006KT P6SM FEW100=



000
FTUS43 KBIS 261700
TAFMOT
TAF
KMOT 261736Z 2618/2718 18005KT P6SM FEW100=



000
FTUS43 KBIS 261700
TAFBIS
TAF
KBIS 261736Z 2618/2718 17005KT P6SM -SHRA BKN080
     FM262000 VRB03KT P6SM BKN090
     FM270500 VRB03KT P6SM FEW100
     FM271200 16007KT P6SM FEW100=



000
FTUS43 KBIS 261700
TAFISN
TAF
KISN 261736Z 2618/2718 17003KT P6SM FEW100=



000
FTUS43 KBIS 261700
TAFJMS
TAF
KJMS 261736Z 2618/2718 23005KT P6SM SCT080
     FM271600 15006KT P6SM FEW100=



000
FTUS43 KBIS 261300 AAB
TAFISN
TAF AMD
KISN 261357Z 2614/2712 17005KT P6SM SCT030
      TEMPO 2614/2615 3SM BR SCT001
     FM261800 18006KT P6SM SCT150
     FM270200 14005KT P6SM SKC=



000
FTUS43 KBIS 261100 AAA
TAFISN
TAF AMD
KISN 261152Z 2612/2712 00000KT 2SM BR SKC
      TEMPO 2612/2614 3/4SM BR SCT003
     FM261500 17005KT P6SM SCT035
     FM261800 18006KT P6SM SKC
     FM270200 14005KT P6SM SKC=



000
FTUS43 KBIS 261100
TAFISN
TAF
KISN 261125Z 2612/2712 VRB03KT P6SM VCFG FEW003 SCT035
     FM261500 17005KT P6SM SCT035
     FM261800 18006KT P6SM SKC
     FM270200 14005KT P6SM SKC=



000
FTUS43 KBIS 261100
TAFDIK
TAF
KDIK 261125Z 2612/2712 18007KT P6SM SCT025 BKN090
     FM261600 16008KT P6SM SCT015 BKN070
     FM270000 14008KT P6SM SCT050
     FM270300 16005KT P6SM SKC=



000
FTUS43 KBIS 261100
TAFMOT
TAF
KMOT 261125Z 2612/2712 24005KT P6SM VCFG SCT004 SCT120
     FM261500 22007KT P6SM SCT040
     FM270200 18004KT P6SM SKC=



000
FTUS43 KBIS 261100
TAFJMS
TAF
KJMS 261125Z 2612/2712 29005KT P6SM SCT035
     FM261700 26006KT P6SM SCT040 BKN120
     FM262000 23007KT P6SM VCSH BKN040 BKN100
     FM270100 23005KT P6SM SCT040 BKN100
     FM270500 VRB03KT P6SM SCT040=



000
FTUS43 KBIS 261100
TAFBIS
TAF
KBIS 261125Z 2612/2712 24005KT P6SM SCT025 SCT120
     FM261500 20005KT P6SM SCT040 BKN100
     FM261800 19006KT P6SM VCSH BKN040 BKN080
     FM270200 14005KT P6SM SCT040=



000
FTUS43 KBIS 260500
TAFBIS
TAF
KBIS 260525Z 2606/2706 24005KT P6SM SCT025
     FM261500 19006KT P6SM BKN040 BKN080
     FM270400 14005KT P6SM SCT060=



000
FTUS43 KBIS 260500
TAFISN
TAF
KISN 260525Z 2606/2706 21004KT P6SM SCT110
     FM261200 18005KT P6SM FEW045
     FM270200 14005KT P6SM SKC=



000
FTUS43 KBIS 260500
TAFMOT
TAF
KMOT 260525Z 2606/2706 24006KT P6SM SCT040 BKN120
     FM261000 24005KT P6SM VCFG SCT004 SCT120
     FM261500 22007KT P6SM SCT040
     FM270200 17004KT P6SM SKC=



000
FTUS43 KBIS 260500
TAFDIK
TAF
KDIK 260525Z 2606/2706 22004KT P6SM SCT025 SCT140
     FM261000 18004KT P6SM SCT025 BKN090
     FM261600 15008KT P6SM VCSH OVC040
     FM270000 14005KT P6SM SCT035 BKN050
     FM270300 14005KT P6SM SCT050=



000
FTUS43 KBIS 260500
TAFJMS
TAF
KJMS 260525Z 2606/2706 26005KT P6SM SCT035
     FM261700 26008KT P6SM BKN080
     FM262300 24005KT P6SM SCT040 BKN080
     FM270400 20004KT P6SM SCT040=



000
FTUS43 KBIS 260100 AAA
TAFBIS
TAF AMD
KBIS 260101Z 2601/2624 31010KT P6SM BKN035
      TEMPO 2601/2603 BKN025
     FM260300 VRB05KT P6SM SCT035 BKN100
     FM261600 18007KT P6SM BKN060=



000
FTUS43 KBIS 260000 AAA
TAFDIK
TAF AMD
KDIK 260036Z 2601/2624 29009KT P6SM SCT025
     FM260800 VRB05KT P6SM SCT040 BKN090
     FM261800 17007KT P6SM BKN040=



000
FTUS43 KBIS 252300
TAFMOT
TAF
KMOT 252325Z 2600/2624 VRB05KT P6SM SCT030 BKN100
     FM261600 18007KT P6SM SCT060=



000
FTUS43 KBIS 252300
TAFISN
TAF
KISN 252325Z 2600/2624 VRB05KT P6SM BKN100
     FM261600 18005KT P6SM SCT045=



000
FTUS43 KBIS 252300
TAFDIK
TAF
KDIK 252325Z 2600/2624 29009KT P6SM SCT025
      TEMPO 2600/2602 BKN025
     FM260800 VRB05KT P6SM SCT040 BKN090
     FM261800 17007KT P6SM BKN040=



000
FTUS43 KBIS 252300
TAFJMS
TAF
KJMS 252325Z 2600/2624 30009KT P6SM SCT025 BKN035
     FM260800 VRB05KT P6SM SCT050
     FM261800 20006KT P6SM BKN080=



000
FTUS43 KBIS 252300
TAFBIS
TAF
KBIS 252325Z 2600/2624 31010KT P6SM BKN035
     FM260200 VRB05KT P6SM SCT035 BKN100
     FM261600 18007KT P6SM BKN060=



000
FTUS43 KBIS 252200 AAB
TAFMOT
TAF AMD
KMOT 252217Z 2522/2618 30015KT P6SM BKN025 OVC040
     FM260100 29006KT P6SM SCT025 SCT100
     FM261600 21006KT P6SM SCT040 SCT100=



000
FTUS43 KBIS 252100 AAA
TAFJMS
TAF AMD
KJMS 252114Z 2521/2618 30019G25KT P6SM SCT025 BKN040
      TEMPO 2521/2524 BKN025
     FM260100 30008KT P6SM SCT035
     FM260800 26005KT P6SM SCT050=



000
FTUS43 KBIS 252100 AAA
TAFDIK
TAF AMD
KDIK 252113Z 2521/2618 30014KT P6SM BKN025 BKN040
     FM260000 31006KT P6SM SCT040
     FM260800 19005KT P6SM SCT100
     FM261300 16007KT P6SM SCT040 BKN120=



000
FTUS43 KBIS 252100 AAA
TAFMOT
TAF AMD
KMOT 252101Z 2521/2618 27015G22KT P6SM BKN025 OVC040
     FM252200 30015KT P6SM SCT025 BKN050
     FM260100 29006KT P6SM SCT035 SCT140
     FM261600 21006KT P6SM SCT040 SCT100=



000
FTUS43 KBIS 252000 AAA
TAFBIS
TAF AMD
KBIS 252017Z 2520/2618 31015G19KT P6SM SCT030 OVC040
      TEMPO 2520/2522 BKN030 OVC040
     FM260000 31008KT P6SM SCT035
     FM260800 25004KT P6SM SCT040
     FM261600 20007KT P6SM SCT030 BKN140=



000
FTUS43 KBIS 251700
TAFJMS
TAF
KJMS 251738Z 2518/2618 30019G25KT P6SM SCT025 BKN040
     FM260100 30008KT P6SM SCT035
     FM260800 26005KT P6SM SCT050=



000
FTUS43 KBIS 251700
TAFDIK
TAF
KDIK 251738Z 2518/2618 30017KT P6SM BKN025 OVC040
     FM252100 31014KT P6SM SCT025 BKN040
     FM260100 31006KT P6SM SCT040
     FM260800 19005KT P6SM SCT100
     FM261300 16007KT P6SM SCT040 BKN120=



000
FTUS43 KBIS 251700
TAFMOT
TAF
KMOT 251738Z 2518/2618 27015G22KT P6SM BKN025 OVC040
     FM252100 30015KT P6SM SCT025 BKN050
     FM260100 29006KT P6SM SCT035 SCT140
     FM261600 21006KT P6SM SCT040 SCT100=



000
FTUS43 KBIS 251700
TAFBIS
TAF
KBIS 251738Z 2518/2618 29018G25KT P6SM OVC040
     FM260000 31008KT P6SM SCT035
     FM260800 25004KT P6SM SCT040
     FM261600 20007KT P6SM SCT030 BKN140=



000
FTUS43 KBIS 251700
TAFISN
TAF
KISN 251738Z 2518/2618 32014KT P6SM SCT018 BKN025 OVC035
      TEMPO 2518/2519 BKN018 OVC025
     FM252000 31012KT P6SM SCT035 BKN050
     FM260100 24004KT P6SM SCT100
     FM261600 17005KT P6SM FEW030 SCT100=



000
FTUS43 KBIS 251600 AAB
TAFJMS
TAF AMD
KJMS 251614Z 2516/2612 29017G24KT P6SM VCSH BKN024 BKN035
     FM251800 30017G24KT P6SM BKN035
     FM260000 30010KT P6SM SCT035
     FM260300 26005KT P6SM SCT035=



000
FTUS43 KBIS 251500 AAA
TAFJMS
TAF AMD
KJMS 251535Z 2516/2612 27012KT P6SM VCSH BKN018 OVC025
     FM251700 29017KT P6SM VCSH BKN025
     FM251900 30017G22KT P6SM BKN035
     FM260000 30010KT P6SM SCT035
     FM260300 26005KT P6SM SCT035=



000
FTUS43 KBIS 251400 AAA
TAFISN
TAF AMD
KISN 251402Z 2514/2612 31014KT P6SM SCT012 BKN025 OVC060
     FM251800 31012KT P6SM BKN035
     FM252300 30007KT P6SM SCT035 BKN110
     FM260300 24004KT P6SM SCT080 SCT100=



000
FTUS43 KBIS 251300 AAB
TAFBIS
TAF AMD
KBIS 251330Z 2514/2612 30015KT P6SM SCT015 BKN025
     FM251600 30015G25KT P6SM BKN025 BKN035
     FM251900 30014KT P6SM SCT025 BKN035
     FM260000 31008KT P6SM SCT035
     FM260500 25004KT P6SM SCT040=



000
FTUS43 KBIS 251300 AAB
TAFMOT
TAF AMD
KMOT 251326Z 2513/2612 28015KT P6SM VCSH BKN012 OVC016
     FM251800 29014KT P6SM SCT015 BKN025
     FM252000 30015KT P6SM SCT025 BKN050
     FM260000 29010KT P6SM SCT035 SCT140
     FM260300 26006KT P6SM SCT040 SCT100=



000
FTUS43 KBIS 251300 AAA
TAFBIS
TAF AMD
KBIS 251313Z 2513/2612 30015KT P6SM BKN015 OVC020
     FM251600 30015KT P6SM BKN025 BKN035
     FM252000 30012KT P6SM SCT025 BKN035
     FM260000 31008KT P6SM SCT035
     FM260500 25004KT P6SM SCT040=



000
FTUS43 KBIS 251300 AAA
TAFMOT
TAF AMD
KMOT 251309Z 2513/2612 30015KT P6SM VCSH OVC008
     FM251400 29015KT P6SM SCT008 OVC015
     FM252100 29014KT P6SM SCT015 BKN035
     FM260000 29010KT P6SM SCT035 SCT140
     FM260300 26006KT P6SM SCT040 SCT100=



000
FTUS43 KBIS 251100
TAFISN
TAF
KISN 251132Z 2512/2612 32014KT P6SM BKN015 OVC030
     FM252000 31012KT P6SM BKN035
     FM252300 30007KT P6SM SCT035 BKN110
     FM260300 24004KT P6SM SCT080 SCT100=



000
FTUS43 KBIS 251100
TAFBIS
TAF
KBIS 251132Z 2512/2612 28015G22KT P6SM BKN015 OVC020
     FM251700 30015KT P6SM BKN025 BKN035
     FM252000 30012KT P6SM SCT025 BKN035
     FM260000 31008KT P6SM SCT035
     FM260500 25004KT P6SM SCT040=



000
FTUS43 KBIS 251100
TAFDIK
TAF
KDIK 251132Z 2512/2612 29018G25KT P6SM OVC010
     FM251600 30015KT P6SM BKN020
     FM252100 31012KT P6SM SCT020 BKN035
     FM260000 29006KT P6SM SCT040
     FM260400 19005KT P6SM SCT040 SCT100=



000
FTUS43 KBIS 251100
TAFJMS
TAF
KJMS 251132Z 2512/2612 26018G25KT P6SM OVC020
     FM251900 30017KT P6SM BKN030
     FM260000 30010KT P6SM SCT035
     FM260300 26005KT P6SM SCT035=



000
FTUS43 KBIS 251100
TAFMOT
TAF
KMOT 251132Z 2512/2612 31015KT P6SM VCSH OVC008
     FM251300 29015KT P6SM SCT008 OVC015
     FM252100 29014KT P6SM SCT015 BKN035
     FM260000 29010KT P6SM SCT035 SCT140
     FM260300 26006KT P6SM SCT040 SCT100=



000
FTUS43 KBIS 250700 AAA
TAFMOT
TAF AMD
KMOT 250725Z 2507/2606 31015KT 6SM -SHRA BR OVC008
     FM251300 29015KT P6SM SCT006 OVC015
     FM252200 29014KT P6SM SCT015 BKN035
     FM260000 29007KT P6SM SCT040 SCT120=



000
FTUS43 KBIS 250500
TAFBIS
TAF
KBIS 250531Z 2506/2606 26015G25KT P6SM OVC025
     FM251300 29015G22KT P6SM BKN015 BKN020
     FM251700 30013KT P6SM BKN025 BKN035
     FM252100 30012KT P6SM SCT030 BKN035
     FM260000 31008KT P6SM SCT035=



000
FTUS43 KBIS 250500
TAFMOT
TAF
KMOT 250531Z 2506/2606 23012KT P6SM -SHRA BKN015 OVC030
     FM250900 28015KT P6SM -SHRA OVC015
     FM251300 29015KT P6SM SCT006 OVC015
     FM252200 29014KT P6SM SCT015 BKN035
     FM260000 29007KT P6SM SCT040 SCT120=



000
FTUS43 KBIS 250500
TAFDIK
TAF
KDIK 250531Z 2506/2606 27018G25KT P6SM VCSH SCT008 OVC010
     FM251600 29015KT P6SM BKN020
     FM252100 31012KT P6SM SCT020 BKN035
     FM260000 28006KT P6SM SCT040=



000
FTUS43 KBIS 250500
TAFISN
TAF
KISN 250531Z 2506/2606 31015G22KT P6SM -SHRA SCT010 OVC015
     FM250800 31015KT P6SM VCSH OVC008
     FM251700 31014KT P6SM BKN015 OVC035
     FM252000 31012KT P6SM BKN035
     FM252300 31007KT P6SM SCT035 SCT140=



000
FTUS43 KBIS 250500
TAFJMS
TAF
KJMS 250531Z 2506/2606 24015KT P6SM SCT025 SCT070
     FM251000 26017KT P6SM BKN025
     FM252000 30015KT P6SM BKN035
     FM260200 30007KT P6SM SCT035=



000
FTUS43 KBIS 250300 AAA
TAFBIS
TAF AMD
KBIS 250309Z 2503/2524 23014KT P6SM SCT020 OVC040
     FM250700 27015KT P6SM OVC020=



000
FTUS43 KBIS 250300 AAA
TAFJMS
TAF AMD
KJMS 250309Z 2503/2524 23013KT P6SM SCT025 BKN050
     FM250500 24014KT P6SM SCT025 BKN060
     FM251000 26015KT P6SM BKN025
     FM251700 28015KT P6SM BKN035=



000
FTUS43 KBIS 250300 AAC
TAFDIK
TAF AMD
KDIK 250306Z 2503/2524 27016G25KT P6SM VCSH BKN012 OVC025
     FM250500 27018KT P6SM BKN009 OVC015
     FM251600 29015KT P6SM BKN020
     FM252100 31012KT P6SM SCT020 BKN040=



000
FTUS43 KBIS 250100 AAB
TAFDIK
TAF AMD
KDIK 250136Z 2502/2524 25017G27KT 2SM -SHRA BKN008 OVC025
     FM250200 27016G24KT P6SM VCSH SCT015 OVC025
     FM250500 27018KT P6SM BKN009 OVC015
     FM251600 29015KT P6SM BKN020
     FM252100 31012KT P6SM SCT020 BKN040=



000
FTUS43 KBIS 250000 AAA
TAFDIK
TAF AMD
KDIK 250032Z 2501/2524 25017G27KT P6SM -SHRA BKN025 OVC035
     FM250200 27016G24KT P6SM VCSH SCT015 OVC025
     FM250500 27018KT P6SM BKN009 OVC015
     FM251600 29015KT P6SM BKN020
     FM252100 31012KT P6SM SCT020 BKN040=



000
FTUS43 KBIS 242300
TAFMOT
TAF
KMOT 242331Z 2500/2524 23015KT P6SM -SHRA BKN020 OVC030
     FM250300 26015KT P6SM -SHRA OVC015
     FM250700 28015KT P6SM VCSH OVC008
     FM251500 29015KT P6SM BKN015 OVC035
     FM252100 29014KT P6SM SCT015 BKN035=



000
FTUS43 KBIS 242300
TAFDIK
TAF
KDIK 242331Z 2500/2524 25020G28KT P6SM -SHRA SCT025 OVC035
     FM250200 27016G24KT P6SM VCSH SCT015 OVC025
     FM250500 27018KT P6SM BKN009 OVC015
     FM251600 29015KT P6SM BKN020
     FM252100 31012KT P6SM SCT020 BKN040=



000
FTUS43 KBIS 242300
TAFBIS
TAF
KBIS 242331Z 2500/2524 26018G26KT P6SM BKN035 OVC045
     FM250300 26015KT P6SM SCT020 OVC035
     FM250700 27015KT P6SM OVC020=



000
FTUS43 KBIS 242300
TAFISN
TAF
KISN 242331Z 2500/2524 28015KT P6SM -SHRA SCT008 OVC025
     FM251000 31014KT P6SM VCSH OVC008
     FM251700 32014KT P6SM BKN015 OVC035
     FM252300 31013KT P6SM SCT015 BKN035=



000
FTUS43 KBIS 242300
TAFJMS
TAF
KJMS 242331Z 2500/2524 23015G25KT P6SM SCT025 BKN050
     FM250500 24014KT P6SM SCT025 BKN060
     FM251000 26015KT P6SM BKN025
     FM251700 28015KT P6SM BKN035=



000
FTUS43 KBIS 242100 AAB
TAFMOT
TAF AMD
KMOT 242125Z 2421/2518 23015KT P6SM VCSH SCT020 OVC050
      TEMPO 2421/2501 3SM -SHRA BKN020
     FM250100 26015KT P6SM -SHRA OVC015
     FM251100 28015KT P6SM VCSH OVC008
     FM251500 29015KT P6SM BKN015=



000
FTUS43 KBIS 242000 AAA
TAFISN
TAF AMD
KISN 242016Z 2420/2518 26008KT P6SM OVC018
     FM242100 28015KT P6SM -SHRA SCT009 OVC025
     FM251100 31015KT P6SM VCSH OVC008
     FM251500 32015KT P6SM OVC015=



000
FTUS43 KBIS 242000 AAA
TAFDIK
TAF AMD
KDIK 242014Z 2420/2518 25020G28KT P6SM VCSH SCT025 BKN050
     FM250300 27016G24KT P6SM VCSH OVC025
     FM251000 29018KT P6SM OVC010
     FM251600 29018KT P6SM BKN025=



000
FTUS43 KBIS 242000 AAA
TAFMOT
TAF AMD
KMOT 242012Z 2420/2518 16006KT P6SM VCSH SCT030 OVC060
     FM242300 23015KT P6SM VCSH SCT025 OVC050
     FM250300 26015KT P6SM -SHRA OVC015
     FM251100 28015KT P6SM VCSH OVC008
     FM251500 29015KT P6SM BKN015=



000
FTUS43 KBIS 242000 AAA
TAFBIS
TAF AMD
KBIS 242011Z 2420/2518 26018G26KT P6SM VCSH BKN035 OVC045
     FM250200 26015KT P6SM OVC035
     FM250600 26015KT P6SM OVC020
      TEMPO 2513/2517 OVC015=



000
FTUS43 KBIS 241800 AAA
TAFJMS
TAF AMD
KJMS 241842Z 2419/2518 23018G25KT P6SM SCT035
     FM242000 23018G25KT P6SM SCT025 BKN040
     FM250500 24015KT P6SM SCT025 BKN060
     FM251000 26015KT P6SM BKN025
     FM251700 28015KT P6SM BKN035=



000
FTUS43 KBIS 241700
TAFBIS
TAF
KBIS 241735Z 2418/2518 22018G26KT P6SM VCSH BKN025 OVC040
     FM242100 24018G28KT P6SM SCT025 OVC040
     FM250200 26015KT P6SM OVC035
     FM250600 26015KT P6SM OVC020
      TEMPO 2513/2517 OVC015=



000
FTUS43 KBIS 241700
TAFDIK
TAF
KDIK 241735Z 2418/2518 27018G28KT P6SM -SHRA BKN015 OVC030
     FM242000 24020G30KT P6SM -SHRA BKN025 OVC035
     FM250300 27016G24KT P6SM VCSH OVC010
     FM251000 29018KT P6SM OVC007
     FM251500 29018KT P6SM BKN015=



000
FTUS43 KBIS 241700
TAFISN
TAF
KISN 241735Z 2418/2518 33012KT P6SM OVC015
     FM242100 32018KT P6SM -SHRA SCT009 OVC015
     FM251100 31015KT P6SM VCSH OVC008
     FM251500 32015KT P6SM OVC015=



000
FTUS43 KBIS 241700
TAFJMS
TAF
KJMS 241735Z 2418/2518 21010KT P6SM SCT025 OVC035
      TEMPO 2418/2420 BKN025
     FM242000 23018KT P6SM SCT025 BKN040
     FM250500 24015KT P6SM SCT025 BKN060
     FM251000 26015KT P6SM BKN025
     FM251700 28015KT P6SM BKN035=



000
FTUS43 KBIS 241700
TAFMOT
TAF
KMOT 241735Z 2418/2518 20008KT P6SM VCSH SCT018 OVC022
      TEMPO 2418/2419 BKN018 OVC022
     FM242100 22015KT P6SM -SHRA BKN025 OVC040
     FM250300 26015KT P6SM -SHRA OVC015
     FM251100 28015KT P6SM VCSH OVC008
     FM251500 29015KT P6SM BKN015=



000
FTUS43 KBIS 241600 AAC
TAFBIS
TAF AMD
KBIS 241628Z 2416/2512 21010KT P6SM VCSH SCT015 OVC020
     FM241800 23015G25KT P6SM VCSH BKN025 OVC035
     FM242100 24015G25KT P6SM SCT025 OVC040
     FM250200 26012KT P6SM OVC035=



000
FTUS43 KBIS 241600 AAC
TAFJMS
TAF AMD
KJMS 241609Z 2416/2512 21008KT P6SM SCT015 BKN020
     FM241900 23018KT P6SM SCT025 BKN040
     FM250500 24015KT P6SM SCT025 BKN060
     FM251000 26015KT P6SM BKN030=



000
FTUS43 KBIS 241500 AAC
TAFMOT
TAF AMD
KMOT 241528Z 2415/2512 19010KT P6SM BKN010
     FM241800 23012KT P6SM -SHRA BKN010 OVC015
     FM250300 26012KT 5SM -SHRA BR OVC010=



000
FTUS43 KBIS 241500 AAA
TAFDIK
TAF AMD
KDIK 241527Z 2415/2512 24012KT P6SM VCSH BKN012 OVC020
     FM242000 24020G30KT P6SM -SHRA BKN025 OVC035
     FM250300 27015G25KT P6SM VCSH OVC010=



000
FTUS43 KBIS 241500 AAB
TAFBIS
TAF AMD
KBIS 241525Z 2415/2512 22016KT P6SM BKN015 OVC025
     FM241800 23015G25KT P6SM VCSH BKN025 OVC035
     FM242100 24015G25KT P6SM SCT025 OVC040
     FM250200 26012KT P6SM OVC035=



000
FTUS43 KBIS 241500 AAA
TAFISN
TAF AMD
KISN 241523Z 2415/2512 34006KT P6SM VCSH OVC013
     FM241800 32008KT P6SM -SHRA OVC015
     FM242100 33008KT P6SM -SHRA SCT006 OVC010
     FM250600 31010KT P6SM -SHRA OVC007=



000
FTUS43 KBIS 241500 AAA
TAFBIS
TAF AMD
KBIS 241522Z 2415/2512 18007KT P6SM VCSH BKN015 OVC025
     FM241800 23015KT P6SM VCSH BKN025 OVC035
     FM242100 24015G25KT P6SM SCT025 OVC040
     FM250200 26012KT P6SM OVC035=



000
FTUS43 KBIS 241400 AAB
TAFJMS
TAF AMD
KJMS 241406Z 2414/2512 18010KT 3SM BR OVC005
      TEMPO 2414/2415 1SM BR OVC002
     FM241500 20010KT 5SM BR BKN006
     FM241600 21012KT P6SM SCT015
     FM242000 23018KT P6SM SCT035 BKN050
     FM250500 24015KT P6SM SCT025 BKN060
     FM251000 26015KT P6SM BKN030=



000
FTUS43 KBIS 241300 AAB
TAFMOT
TAF AMD
KMOT 241348Z 2414/2512 18011KT P6SM BKN090
     FM241600 23008KT P6SM BKN015
     FM241800 23012KT P6SM -SHRA BKN010 OVC015
     FM250300 26012KT 5SM -SHRA BR OVC010=



000
FTUS43 KBIS 241300 AAA
TAFBIS
TAF AMD
KBIS 241348Z 2414/2512 19006KT P6SM OVC008
     FM241500 25010KT P6SM VCSH OVC015
     FM241800 23015KT P6SM VCSH BKN025 OVC035
     FM242100 24015G25KT P6SM SCT025 OVC040
     FM250200 26012KT P6SM OVC035=



000
FTUS43 KBIS 241300 AAA
TAFMOT
TAF AMD
KMOT 241311Z 2413/2512 18011KT P6SM SCT006 BKN090
      TEMPO 2413/2416 BKN006
     FM241600 23008KT P6SM BKN015
     FM241800 23012KT P6SM -SHRA BKN010 OVC015
     FM250300 26012KT 5SM -SHRA BR OVC010=



000
FTUS43 KBIS 241300 AAA
TAFJMS
TAF AMD
KJMS 241308Z 2413/2512 17008KT 3SM BR OVC005
      TEMPO 2413/2415 1/4SM FG OVC002
     FM241500 21008KT P6SM VCSH OVC015
     FM242000 23018KT P6SM SCT035 BKN050
     FM250500 24015KT P6SM SCT025 BKN060
     FM251000 26015KT P6SM BKN030=



    US Dept of Commerce
    National Oceanic and Atmospheric Administration
    National Weather Service
    1325 East West Highway
    Silver Spring, MD 20910
    Page Author: NWS Internet Services Team
Disclaimer
Information Quality
Credits
Glossary
Privacy Policy
Freedom of Information Act (FOIA)
About Us
Career Opportunities